Time;durP1;ratioP1;P1;durP2;ratioP2;P2;SDS_P1;SDS_P2;PMS_P1;PMS_P2;Temp;Humidity;BMP_temperature;BMP_pressure;BME280_temperature;BME280_humidity;BME280_pressure;Samples;Min_cycle;Max_cycle;Signal;HPM_P1;HPM_P2
2022/03/23 00:00:26;;;;;;;112.25;38.80;;;;;;;-0.14;78.22;99811.23;1761746;80;20993;-56
2022/03/23 00:02:55;;;;;;;122.65;49.08;;;;;;;-0.02;78.17;99806.71;1761283;80;20962;-57
2022/03/23 00:05:23;;;;;;;118.05;59.40;;;;;;;0.12;78.00;99807.04;1769158;80;20997;-57
2022/03/23 00:07:50;;;;;;;82.45;41.37;;;;;;;0.19;77.63;99806.20;1742512;81;20998;-57
2022/03/23 00:10:16;;;;;;;105.05;48.60;;;;;;;0.28;77.58;99804.34;1746824;80;21397;-56
2022/03/23 00:12:44;;;;;;;114.65;48.92;;;;;;;0.30;77.25;99801.00;1745293;80;20998;-57
2022/03/23 00:15:12;;;;;;;97.12;45.60;;;;;;;-0.01;77.64;99803.55;1743396;81;20982;-57
2022/03/23 00:17:39;;;;;;;97.78;47.25;;;;;;;-0.21;77.18;99805.73;1755327;80;21002;-57
2022/03/23 00:20:08;;;;;;;100.27;42.15;;;;;;;-0.40;78.20;99800.24;1743452;81;21026;-57
2022/03/23 00:22:35;;;;;;;92.82;42.20;;;;;;;-0.41;76.82;99804.41;1743167;81;21896;-57
2022/03/23 00:25:02;;;;;;;106.07;48.48;;;;;;;-0.45;77.13;99793.73;1743199;82;20962;-57
2022/03/23 00:27:29;;;;;;;107.00;50.15;;;;;;;-0.49;78.21;99797.74;1768613;80;21438;-56
2022/03/23 00:29:56;;;;;;;100.80;46.53;;;;;;;-0.56;77.91;99793.57;1755744;80;21824;-57
2022/03/23 00:32:23;;;;;;;106.83;46.50;;;;;;;-0.72;77.21;99792.22;1743095;81;21005;-57
2022/03/23 00:34:50;;;;;;;94.45;46.30;;;;;;;-0.92;77.05;99787.20;1743003;82;22176;-57
2022/03/23 00:37:17;;;;;;;104.07;48.85;;;;;;;-1.05;76.58;99781.49;1742943;81;21086;-57
2022/03/23 00:39:44;;;;;;;101.25;51.02;;;;;;;-1.14;76.85;99781.97;1743194;82;21061;-57
2022/03/23 00:42:11;;;;;;;109.67;51.02;;;;;;;-1.36;78.56;99787.89;1743168;80;20998;-57
2022/03/23 00:44:38;;;;;;;109.70;50.63;;;;;;;-1.47;78.45;99778.85;1743400;82;21014;-57
2022/03/23 00:47:05;;;;;;;101.00;49.63;;;;;;;-1.55;81.15;99774.83;1750923;80;22057;-57
2022/03/23 00:49:32;;;;;;;91.22;46.85;;;;;;;-1.58;81.08;99775.16;1760849;80;20965;-57
2022/03/23 00:52:02;;;;;;;83.22;43.17;;;;;;;-1.54;79.97;99774.69;1743130;82;21104;-57
2022/03/23 00:54:28;;;;;;;95.87;47.93;;;;;;;-1.58;82.38;99764.52;1738849;80;21482;-57
2022/03/23 00:56:55;;;;;;;98.50;47.05;;;;;;;-1.58;82.38;99764.52;1746708;80;20958;-57
2022/03/23 00:59:22;;;;;;;99.25;47.67;;;;;;;-1.60;81.38;99765.18;1763184;80;21387;-56
2022/03/23 01:01:49;;;;;;;94.77;45.98;;;;;;;-1.67;82.00;99766.30;1743084;80;21092;-57
2022/03/23 01:04:16;;;;;;;99.15;47.75;;;;;;;-1.75;82.98;99771.08;1742965;81;21518;-57
2022/03/23 01:06:43;;;;;;;92.10;43.02;;;;;;;-1.73;83.49;99765.60;1755480;80;21060;-57
2022/03/23 01:09:10;;;;;;;107.50;46.95;;;;;;;-1.76;83.25;99764.11;1742915;82;21079;-57
2022/03/23 01:11:37;;;;;;;95.15;45.38;;;;;;;-1.82;82.94;99762.07;1743228;82;21415;-57
2022/03/23 01:14:05;;;;;;;87.60;41.60;;;;;;;-1.87;83.40;99755.58;1742781;81;21030;-57
2022/03/23 01:16:32;;;;;;;93.55;42.70;;;;;;;-1.83;79.58;99762.23;1743252;82;21442;-57
2022/03/23 01:19:00;;;;;;;81.82;38.40;;;;;;;-1.93;79.85;99758.36;1743039;81;21427;-57
2022/03/23 01:21:28;;;;;;;84.37;38.50;;;;;;;-1.93;79.85;99756.20;1743108;82;21385;-56
2022/03/23 01:23:55;;;;;;;75.40;35.15;;;;;;;-1.97;79.31;99753.50;1746451;81;21442;-57
2022/03/23 01:26:22;;;;;;;88.60;40.35;;;;;;;-2.02;79.15;99758.81;1751736;81;21026;-57
2022/03/23 01:28:49;;;;;;;79.65;38.98;;;;;;;-2.04;82.66;99747.52;1742778;81;21108;-57
2022/03/23 01:31:16;;;;;;;70.32;34.65;;;;;;;-1.99;82.87;99748.35;1743290;82;21030;-57
2022/03/23 01:33:43;;;;;;;69.15;34.70;;;;;;;-1.96;82.98;99740.09;1742878;81;21061;-57
2022/03/23 01:36:10;;;;;;;73.72;34.90;;;;;;;-1.89;79.85;99749.56;1742818;82;22085;-57
2022/03/23 01:38:37;;;;;;;69.67;33.78;;;;;;;-1.87;79.82;99747.11;1742930;81;20974;-57
2022/03/23 01:41:04;;;;;;;75.90;35.60;;;;;;;-1.80;83.24;99745.95;1743323;82;21069;-57
2022/03/23 01:43:33;;;;;;;81.47;35.10;;;;;;;-1.75;84.71;99736.53;1743091;81;21057;-57
2022/03/23 01:46:01;;;;;;;69.05;34.73;;;;;;;-1.72;84.66;99739.36;1743239;82;21046;-57
2022/03/23 01:48:28;;;;;;;77.10;38.00;;;;;;;-1.72;85.28;99743.34;1768552;80;21366;-57
2022/03/23 01:50:55;;;;;;;76.20;35.45;;;;;;;-1.79;84.85;99745.00;1761495;80;20985;-57
2022/03/23 01:53:22;;;;;;;86.20;41.42;;;;;;;-1.90;83.82;99741.27;1742942;81;21415;-57
2022/03/23 01:55:49;;;;;;;92.57;42.88;;;;;;;-2.00;83.01;99739.55;1743118;82;21057;-57
2022/03/23 01:58:20;;;;;;;92.30;40.48;;;;;;;-2.10;83.22;99729.53;1742992;81;21049;-57
2022/03/23 02:00:47;;;;;;;75.45;39.67;;;;;;;-2.17;81.77;99735.13;1743281;81;20971;-56
2022/03/23 02:03:14;;;;;;;83.07;40.08;;;;;;;-2.27;82.89;99738.39;1742915;82;20998;-56
2022/03/23 02:05:41;;;;;;;71.40;36.45;;;;;;;-2.30;82.32;99734.23;1743261;82;21010;-57
2022/03/23 02:08:08;;;;;;;67.30;34.55;;;;;;;-2.31;83.21;99735.23;1743001;82;21466;-57
2022/03/23 02:10:35;;;;;;;87.78;39.50;;;;;;;-2.30;83.66;99738.22;1743219;82;21002;-57
2022/03/23 02:13:02;;;;;;;65.35;33.42;;;;;;;-2.31;84.62;99736.55;1743121;81;21400;-57
2022/03/23 02:15:29;;;;;;;73.75;35.90;;;;;;;-2.29;85.76;99739.05;1762046;80;20994;-57
2022/03/23 02:17:57;;;;;;;72.27;36.20;;;;;;;-2.31;86.74;99733.03;1749245;81;21044;-57
2022/03/23 02:20:24;;;;;;;74.30;37.08;;;;;;;-2.31;86.72;99736.55;1762065;80;21057;-57
2022/03/23 02:22:51;;;;;;;73.92;38.02;;;;;;;-2.33;86.99;99735.02;1743403;81;21057;-57
2022/03/23 02:25:25;;;;;;;72.37;36.10;;;;;;;-2.32;86.32;99733.53;1743221;82;21977;-57
2022/03/23 02:27:53;;;;;;;70.42;34.05;;;;;;;-2.32;85.36;99732.70;1743087;82;21017;-56
2022/03/23 02:30:20;;;;;;;68.28;33.28;;;;;;;-2.41;82.50;99733.14;1743519;82;21030;-57
2022/03/23 02:32:48;;;;;;;76.10;36.98;;;;;;;-2.52;84.27;99732.06;1743305;82;20982;-57
2022/03/23 02:35:15;;;;;;;68.05;36.33;;;;;;;-2.60;85.68;99735.48;1743539;82;21014;-56
2022/03/23 02:37:42;;;;;;;71.47;36.93;;;;;;;-2.60;85.24;99738.14;1743234;81;22017;-57
2022/03/23 02:40:10;;;;;;;78.28;36.42;;;;;;;-2.67;85.53;99734.92;1742974;82;21426;-56
2022/03/23 02:42:37;;;;;;;72.42;35.88;;;;;;;-2.77;85.78;99737.66;1743201;81;21072;-56
2022/03/23 02:45:06;;;;;;;78.95;39.92;;;;;;;-2.79;83.55;99736.99;1743217;82;21486;-57
2022/03/23 02:47:33;;;;;;;69.30;36.93;;;;;;;-2.91;84.61;99733.72;1743213;80;24514;-56
2022/03/23 02:50:01;;;;;;;71.70;34.40;;;;;;;-2.94;84.88;99728.72;1743261;82;21493;-56
2022/03/23 02:52:28;;;;;;;66.87;32.20;;;;;;;-2.98;83.14;99727.87;1743030;82;22035;-57
2022/03/23 03:04:10;;;;;;;64.53;29.87;;;;;;;-3.07;85.23;99726.95;1743078;82;21387;-56
2022/03/23 03:06:37;;;;;;;64.42;34.03;;;;;;;-3.01;86.62;99726.83;1743237;82;21446;-57
2022/03/23 03:09:05;;;;;;;57.53;28.60;;;;;;;-2.95;87.21;99726.23;1743086;81;21037;-57
2022/03/23 03:11:31;;;;;;;61.35;30.35;;;;;;;-2.93;84.05;99719.78;1743333;82;21017;-57
2022/03/23 03:13:59;;;;;;;57.08;29.95;;;;;;;-2.94;83.61;99732.70;1742859;81;21140;-56
2022/03/23 03:16:26;;;;;;;53.28;27.13;;;;;;;-2.95;84.84;99724.91;1743519;82;21324;-57
2022/03/23 03:18:53;;;;;;;61.10;30.20;;;;;;;-2.94;83.38;99722.09;1741419;81;20997;-56
2022/03/23 03:21:20;;;;;;;51.30;25.23;;;;;;;-2.96;82.91;99724.07;1755922;80;20977;-57
2022/03/23 03:23:47;;;;;;;64.62;32.25;;;;;;;-2.93;81.86;99721.59;1744286;80;20986;-57
2022/03/23 03:26:15;;;;;;;68.47;31.97;;;;;;;-2.97;85.56;99724.23;1743189;82;21430;-57
2022/03/23 03:28:42;;;;;;;65.28;30.17;;;;;;;-2.96;85.93;99721.42;1743367;82;21609;-56
2022/03/23 03:31:11;;;;;;;67.15;32.13;;;;;;;-2.96;84.76;99731.20;1752016;80;21450;-57
2022/03/23 03:33:38;;;;;;;;;;;;;;;-2.97;84.18;99729.04;1748723;80;21056;-57
2022/03/23 03:36:05;;;;;;;56.05;27.70;;;;;;;-2.99;84.86;99724.39;1749766;80;20194;-57
2022/03/23 03:38:33;;;;;;;67.70;31.50;;;;;;;-3.02;84.61;99720.69;1743071;82;21081;-56
2022/03/23 03:40:59;;;;;;;62.67;29.30;;;;;;;-3.08;85.95;99727.08;1743154;82;21174;-57
2022/03/23 03:43:27;;;;;;;54.05;27.10;;;;;;;-3.12;82.86;99724.75;1720187;82;20993;-57
2022/03/23 03:45:54;;;;;;;63.48;28.45;;;;;;;-3.22;82.29;99722.66;1743274;82;21069;-57
2022/03/23 03:48:21;;;;;;;52.08;28.20;;;;;;;-3.30;84.66;99713.29;1767192;80;21061;-57
2022/03/23 03:50:48;;;;;;;61.05;31.60;;;;;;;-3.33;84.30;99720.23;1762787;80;22133;-57
2022/03/23 03:53:15;;;;;;;57.80;28.25;;;;;;;-3.33;86.58;99715.39;1763753;80;21438;-57
2022/03/23 03:55:42;;;;;;;60.85;27.02;;;;;;;-3.29;85.13;99726.05;1743201;82;21042;-56
2022/03/23 03:58:09;;;;;;;59.38;29.57;;;;;;;-3.31;84.28;99722.23;1764595;79;21044;-57
2022/03/23 04:00:36;;;;;;;58.58;30.12;;;;;;;-3.32;83.80;99726.36;1747372;80;21010;-57
2022/03/23 04:03:03;;;;;;;66.97;33.48;;;;;;;-3.36;84.31;99722.33;1743080;82;21053;-57
2022/03/23 04:05:33;;;;;;;64.67;30.25;;;;;;;-3.34;86.58;99721.68;1743014;82;20963;-56
2022/03/23 04:08:00;;;;;;;64.07;32.40;;;;;;;-3.30;85.92;99718.59;1743309;80;21001;-56
2022/03/23 04:10:27;;;;;;;61.90;33.20;;;;;;;-3.29;85.99;99726.05;1743141;82;21497;-57
2022/03/23 04:12:54;;;;;;;59.88;29.27;;;;;;;-3.28;85.94;99726.39;1743087;81;21115;-57
2022/03/23 04:15:21;;;;;;;58.83;30.57;;;;;;;-3.27;85.49;99730.22;1743190;82;21007;-57
2022/03/23 04:17:48;;;;;;;59.35;28.00;;;;;;;-3.30;85.78;99727.88;1743157;81;21155;-57
2022/03/23 04:20:15;;;;;;;69.32;31.20;;;;;;;-3.33;86.74;99723.34;1743233;82;21045;-57
2022/03/23 04:22:42;;;;;;;72.03;35.38;;;;;;;-3.41;86.41;99725.44;1743205;81;21022;-57
2022/03/23 04:25:12;;;;;;;72.27;35.23;;;;;;;-3.47;85.68;99720.23;1743014;82;21010;-57
2022/03/23 04:27:51;;;;;;;72.90;36.50;;;;;;;-3.55;85.44;99718.81;1743160;81;21014;-57
2022/03/23 04:30:20;;;;;;;79.37;36.45;;;;;;;-3.63;86.05;99716.56;1742972;82;21311;-56
2022/03/23 04:32:49;;;;;;;67.70;33.00;;;;;;;-3.62;86.61;99716.41;1743096;81;21066;-56
2022/03/23 04:35:16;;;;;;;61.73;33.83;;;;;;;-3.58;85.39;99713.82;1743381;82;21061;-56
2022/03/23 04:37:43;;;;;;;61.40;30.55;;;;;;;-3.55;87.23;99716.16;1743023;81;21513;-56
2022/03/23 04:40:11;;;;;;;57.08;28.75;;;;;;;-3.52;87.72;99720.33;1742894;82;21013;-56
2022/03/23 04:42:40;;;;;;;54.27;27.82;;;;;;;-3.45;88.58;99720.08;1743242;81;21482;-56
2022/03/23 04:45:08;;;;;;;66.15;31.95;;;;;;;-3.38;88.65;99719.00;1743064;82;21526;-56
2022/03/23 04:47:36;;;;;;;76.65;34.03;;;;;;;-3.37;88.30;99721.98;1755284;81;21037;-56
2022/03/23 04:50:05;;;;;;;64.87;30.03;;;;;;;-3.41;87.33;99709.54;1770727;80;20996;-56
2022/03/23 04:52:33;;;;;;;57.93;30.85;;;;;;;-3.44;87.08;99715.12;1707451;84;21013;-56
2022/03/23 04:55:00;;;;;;;78.20;31.10;;;;;;;-3.52;87.02;99707.08;1749281;80;22147;-56
2022/03/23 04:57:27;;;;;;;75.42;37.03;;;;;;;-3.53;85.74;99707.56;1743082;81;20986;-56
2022/03/23 04:59:55;;;;;;;68.65;36.08;;;;;;;-3.60;85.38;99706.48;1760608;80;21017;-56
2022/03/23 05:02:21;;;;;;;67.00;35.50;;;;;;;-3.67;84.37;99704.11;1749809;80;21010;-56
2022/03/23 05:04:48;;;;;;;71.60;35.73;;;;;;;-3.77;83.47;99700.66;1743163;82;21073;-56
2022/03/23 05:07:15;;;;;;;74.67;38.48;;;;;;;-3.87;83.57;99708.66;1743315;82;21002;-55
2022/03/23 05:09:42;;;;;;;64.90;33.88;;;;;;;-3.98;84.29;99704.88;1742959;82;21045;-56
2022/03/23 05:12:09;;;;;;;74.35;36.05;;;;;;;-3.96;86.36;99704.23;1743170;81;21482;-56
2022/03/23 05:14:37;;;;;;;71.12;35.00;;;;;;;-3.95;84.20;99708.55;1743017;82;21191;-56
2022/03/23 05:17:04;;;;;;;72.42;32.78;;;;;;;-3.92;85.82;99699.50;1743125;81;21007;-56
2022/03/23 05:19:31;;;;;;;68.17;35.38;;;;;;;-3.74;87.14;99702.53;1743191;82;22101;-56
2022/03/23 05:21:58;;;;;;;60.95;29.60;;;;;;;-3.61;88.14;99698.69;1743051;81;21446;-56
2022/03/23 05:24:25;;;;;;;59.48;28.92;;;;;;;-3.43;88.48;99696.90;1743010;82;20951;-57
2022/03/23 05:26:52;;;;;;;59.10;30.68;;;;;;;-3.25;89.16;99703.05;1743208;82;21045;-56
2022/03/23 05:29:19;;;;;;;57.43;28.57;;;;;;;-3.10;89.16;99702.05;1742991;81;21073;-56
2022/03/23 05:31:46;;;;;;;72.92;34.90;;;;;;;-2.96;88.24;99702.02;1743020;82;22011;-56
2022/03/23 05:34:13;;;;;;;77.25;36.40;;;;;;;-2.77;86.31;99695.70;1742841;81;21466;-56
2022/03/23 05:36:39;;;;;;;65.17;33.02;;;;;;;-2.63;85.88;99693.84;1743128;82;21005;-56
2022/03/23 05:39:06;;;;;;;81.82;37.23;;;;;;;-2.64;84.50;99693.50;1742949;81;20986;-56
2022/03/23 05:41:33;;;;;;;66.97;33.75;;;;;;;-2.73;84.52;99693.93;1744473;80;21014;-56
2022/03/23 05:44:00;;;;;;;67.58;35.65;;;;;;;-2.69;84.39;99697.09;1767222;80;22068;-56
2022/03/23 05:46:27;;;;;;;83.00;35.52;;;;;;;-2.65;83.70;99690.48;1760758;80;21411;-56
2022/03/23 05:48:54;;;;;;;60.65;31.87;;;;;;;-2.59;85.21;99685.89;1748101;80;21438;-57
2022/03/23 05:51:21;;;;;;;61.65;34.18;;;;;;;-2.43;85.87;99681.19;1744317;80;21085;-56
2022/03/23 05:53:48;;;;;;;69.45;35.98;;;;;;;-2.29;85.48;99678.80;1746759;80;20985;-56
2022/03/23 05:56:15;;;;;;;87.88;40.03;;;;;;;-2.17;84.81;99683.34;1767276;80;21401;-56
2022/03/23 05:58:42;;;;;;;78.95;39.92;;;;;;;-2.13;84.53;99675.91;1745072;80;21602;-56
2022/03/23 06:01:09;;;;;;;73.17;39.03;;;;;;;-2.06;84.52;99680.89;1743298;80;21025;-56
2022/03/23 06:03:36;;;;;;;65.78;34.30;;;;;;;-1.95;83.82;99679.81;1746127;80;21069;-56
2022/03/23 06:06:03;;;;;;;72.85;36.40;;;;;;;-1.86;83.16;99678.84;1753431;80;21052;-55
2022/03/23 06:08:30;;;;;;;66.75;34.15;;;;;;;-1.78;83.29;99674.90;1737522;80;21544;-56
2022/03/23 06:10:57;;;;;;;85.22;40.52;;;;;;;-1.50;83.02;99674.98;1758461;81;21049;-56
2022/03/23 06:13:24;;;;;;;74.53;39.15;;;;;;;-1.11;83.01;99671.75;1750568;80;21033;-56
2022/03/23 06:15:51;;;;;;;70.35;36.00;;;;;;;-0.82;82.39;99676.58;1750558;80;21057;-56
2022/03/23 06:18:18;;;;;;;74.17;36.73;;;;;;;-0.66;81.94;99674.41;1743018;81;21538;-56
2022/03/23 06:20:45;;;;;;;67.65;36.93;;;;;;;-0.58;81.63;99672.58;1742630;82;21420;-55
2022/03/23 06:23:13;;;;;;;74.82;35.83;;;;;;;-0.58;81.46;99675.74;1743030;81;21065;-56
2022/03/23 06:25:40;;;;;;;63.17;33.45;;;;;;;-0.48;81.67;99678.22;1743087;80;21041;-56
2022/03/23 06:28:07;;;;;;;70.50;34.65;;;;;;;-0.41;81.46;99673.89;1763996;80;20993;-56
2022/03/23 06:30:34;;;;;;;71.05;36.38;;;;;;;-0.30;81.63;99672.20;1747443;80;20974;-56
2022/03/23 06:33:02;;;;;;;53.05;27.45;;;;;;;-0.13;81.14;99679.15;1739520;80;21436;-57
2022/03/23 06:35:29;;;;;;;76.00;33.38;;;;;;;0.07;80.63;99675.58;1741170;81;21057;-56
2022/03/23 06:37:56;;;;;;;59.45;30.27;;;;;;;0.33;80.06;99673.15;1745594;80;21532;-56
2022/03/23 06:40:24;;;;;;;65.45;33.58;;;;;;;0.55;79.28;99679.05;1743534;80;21921;-55
2022/03/23 06:42:51;;;;;;;65.20;35.58;;;;;;;0.79;79.29;99675.42;1705300;82;21566;-56
2022/03/23 06:45:18;;;;;;;64.60;36.58;;;;;;;0.98;79.10;99674.95;1752079;80;20977;-56
2022/03/23 06:47:45;;;;;;;57.45;31.93;;;;;;;1.19;79.03;99672.94;1763113;80;21040;-56
2022/03/23 06:50:12;;;;;;;113.00;53.63;;;;;;;1.38;78.42;99673.80;1759565;80;21009;-57
2022/03/23 06:52:39;;;;;;;99.65;49.73;;;;;;;1.67;78.10;99662.33;1759386;80;21537;-56
2022/03/23 06:55:07;;;;;;;84.25;41.55;;;;;;;2.13;75.89;99670.17;1761135;80;21108;-56
2022/03/23 06:57:34;;;;;;;76.65;38.88;;;;;;;2.35;76.51;99662.23;1760315;80;21091;-56
2022/03/23 07:00:02;;;;;;;66.47;37.48;;;;;;;2.46;74.49;99663.92;1761226;80;21018;-57
2022/03/23 07:02:29;;;;;;;67.60;34.05;;;;;;;2.82;74.66;99663.94;1763104;80;21045;-57
2022/03/23 07:04:56;;;;;;;55.50;31.40;;;;;;;3.06;74.95;99662.72;1747831;80;21093;-57
2022/03/23 07:07:23;;;;;;;58.13;32.78;;;;;;;3.84;73.97;99658.70;1741539;80;21571;-57
2022/03/23 07:09:50;;;;;;;62.08;35.58;;;;;;;5.06;73.08;99655.63;1746990;80;21290;-57
2022/03/23 07:12:20;;;;;;;69.25;40.67;;;;;;;5.85;66.67;99649.93;1754207;80;21077;-57
2022/03/23 07:14:46;;;;;;;54.27;33.42;;;;;;;6.89;69.55;99640.35;1751655;80;21041;-56
2022/03/23 07:17:13;;;;;;;54.45;30.75;;;;;;;7.61;66.40;99648.45;1760807;80;21395;-58
2022/03/23 07:19:40;;;;;;;48.95;29.45;;;;;;;8.62;66.88;99648.52;1758192;80;20972;-57
2022/03/23 07:22:07;;;;;;;41.77;26.10;;;;;;;9.27;58.42;99643.78;1748055;80;21583;-57
2022/03/23 07:24:34;;;;;;;45.45;27.27;;;;;;;9.70;54.32;99638.61;1753904;80;20982;-58
2022/03/23 07:27:01;;;;;;;40.78;25.02;;;;;;;10.67;56.94;99632.07;1747308;80;21112;-57
2022/03/23 07:29:28;;;;;;;40.83;28.80;;;;;;;11.54;53.56;99629.87;1745463;80;21612;-57
2022/03/23 07:31:54;;;;;;;40.80;26.68;;;;;;;12.37;52.99;99619.94;1755335;80;21021;-57
2022/03/23 07:34:21;;;;;;;45.00;24.80;;;;;;;12.71;50.28;99619.26;1745432;80;21124;-57
2022/03/23 07:36:49;;;;;;;42.40;26.93;;;;;;;13.14;44.51;99627.05;1758600;80;21076;-57
2022/03/23 07:39:20;;;;;;;39.67;25.60;;;;;;;13.77;42.48;99619.19;1746434;80;21068;-57
2022/03/23 07:41:45;;;;;;;41.02;23.95;;;;;;;14.02;40.15;99613.09;1742106;80;21120;-57
2022/03/23 07:44:12;;;;;;;34.63;22.42;;;;;;;14.95;44.89;99611.32;1754908;80;21009;-58
2022/03/23 07:46:39;;;;;;;32.90;22.50;;;;;;;15.17;43.44;99607.52;1747579;80;20986;-57
2022/03/23 07:49:06;;;;;;;28.80;19.23;;;;;;;15.59;39.43;99607.27;1741180;81;21120;-58
2022/03/23 07:51:32;;;;;;;31.85;19.60;;;;;;;16.44;38.57;99602.47;1747422;80;21058;-57
2022/03/23 07:54:00;;;;;;;33.60;19.57;;;;;;;15.90;32.52;99603.99;1751642;80;47283;-58
2022/03/23 07:56:27;;;;;;;31.52;21.00;;;;;;;16.58;32.61;99605.69;1746019;80;21006;-57
2022/03/23 07:58:54;;;;;;;31.25;19.67;;;;;;;17.21;35.75;99603.70;1741230;80;21733;-57
2022/03/23 08:01:21;;;;;;;27.40;19.15;;;;;;;17.65;33.49;99601.43;1744835;80;21336;-58
2022/03/23 08:03:48;;;;;;;39.83;20.20;;;;;;;18.44;34.40;99591.83;1746672;80;21166;-57
2022/03/23 08:06:14;;;;;;;27.82;18.32;;;;;;;19.40;33.95;99594.37;1741285;82;20978;-58
2022/03/23 08:08:42;;;;;;;28.38;19.52;;;;;;;19.88;31.15;99588.61;1744303;80;21083;-58
2022/03/23 08:11:09;;;;;;;31.30;17.55;;;;;;;19.98;30.33;99582.35;1745749;80;22273;-58
2022/03/23 08:13:36;;;;;;;24.10;17.35;;;;;;;19.78;30.79;99583.30;1740713;81;20934;-57
2022/03/23 08:16:05;;;;;;;23.98;17.98;;;;;;;20.35;30.32;99579.74;1750070;80;21033;-58
2022/03/23 08:18:33;;;;;;;23.47;16.73;;;;;;;21.20;28.31;99572.09;1741635;80;21073;-57
2022/03/23 08:21:00;;;;;;;;;;;;;;;21.36;28.23;99567.88;1758296;80;21498;-58
2022/03/23 08:23:29;;;;;;;22.80;14.73;;;;;;;21.42;26.28;99568.54;1745116;80;21028;-58
2022/03/23 08:25:56;;;;;;;30.10;19.40;;;;;;;22.44;26.37;99563.87;1743313;80;20978;-57
2022/03/23 08:28:23;;;;;;;90.65;65.00;;;;;;;22.99;24.70;99566.11;1749080;80;21029;-58
2022/03/23 08:30:50;;;;;;;25.72;17.80;;;;;;;22.89;25.38;99557.30;1741278;81;21451;-58
2022/03/23 08:33:19;;;;;;;29.07;19.17;;;;;;;22.85;23.79;99554.39;1747214;80;21024;-58
2022/03/23 08:35:46;;;;;;;68.78;46.88;;;;;;;24.40;22.52;99553.84;1763479;80;21978;-58
2022/03/23 08:38:13;;;;;;;26.25;18.10;;;;;;;24.61;23.83;99553.88;1749418;80;20993;-58
2022/03/23 08:40:40;;;;;;;27.00;20.37;;;;;;;25.42;23.08;99551.23;1742377;80;21088;-58
2022/03/23 08:43:07;;;;;;;19.27;12.45;;;;;;;26.10;22.52;99546.89;1743693;80;21569;-58
2022/03/23 08:45:34;;;;;;;19.27;12.68;;;;;;;26.88;20.15;99545.00;1750017;80;21040;-58
2022/03/23 08:48:02;;;;;;;48.70;35.58;;;;;;;26.38;20.00;99547.62;1742137;80;20997;-58
2022/03/23 08:50:29;;;;;;;20.77;14.85;;;;;;;27.41;20.32;99542.98;1706958;82;21051;-58
2022/03/23 08:52:56;;;;;;;17.85;12.50;;;;;;;28.21;20.10;99545.54;1748981;81;21463;-58
2022/03/23 08:55:25;;;;;;;24.72;19.42;;;;;;;28.96;19.02;99536.14;1770363;80;21041;-58
2022/03/23 08:57:51;;;;;;;16.27;13.03;;;;;;;29.61;18.28;99538.28;1745391;80;22973;-58
2022/03/23 09:00:18;;;;;;;17.05;11.28;;;;;;;29.47;17.11;99531.20;1741519;82;21023;-58
2022/03/23 09:02:45;;;;;;;31.82;12.78;;;;;;;26.83;18.90;99531.33;1740755;81;21042;-58
2022/03/23 09:05:14;;;;;;;26.85;11.93;;;;;;;25.44;19.35;99532.27;1746353;80;21064;-58
2022/03/23 09:07:42;;;;;;;15.72;9.13;;;;;;;24.01;19.57;99526.70;1750582;80;21065;-57
2022/03/23 09:10:13;;;;;;;14.30;9.57;;;;;;;22.60;20.56;99522.80;1749661;80;21013;-57
2022/03/23 09:12:40;;;;;;;17.82;10.75;;;;;;;21.55;21.31;99525.48;1750251;80;21873;-57
2022/03/23 09:15:09;;;;;;;16.83;10.80;;;;;;;20.63;20.87;99524.10;1706779;82;21036;-57
2022/03/23 09:17:36;;;;;;;13.78;10.48;;;;;;;19.77;21.70;99516.48;1745815;80;21445;-57
2022/03/23 09:20:04;;;;;;;17.20;12.13;;;;;;;19.33;22.46;99513.67;1762341;80;21060;-57
2022/03/23 09:22:34;;;;;;;18.27;11.85;;;;;;;18.84;22.67;99509.52;1752745;80;21159;-57
2022/03/23 09:25:09;;;;;;;19.80;11.68;;;;;;;18.39;22.79;99503.28;1749394;80;21113;-57
2022/03/23 09:27:37;;;;;;;20.72;10.68;;;;;;;17.87;23.14;99504.48;1746416;80;21069;-57
2022/03/23 09:30:05;;;;;;;19.43;12.00;;;;;;;17.31;23.83;99505.00;1754419;78;21017;-57
2022/03/23 09:32:32;;;;;;;20.77;14.30;;;;;;;17.31;23.83;99505.00;1756339;80;21025;-57
2022/03/23 09:34:59;;;;;;;13.20;9.83;;;;;;;17.11;24.09;99499.72;1748264;80;21038;-58
2022/03/23 09:38:03;;;;;;;25.77;11.68;;;;;;;16.93;24.22;99501.78;1697871;82;21640;-57
2022/03/23 09:40:01;;;;;;;24.52;12.00;;;;;;;16.76;24.06;99492.59;1677263;85;21481;-57
2022/03/23 09:42:28;;;;;;;18.12;11.03;;;;;;;16.61;24.00;99492.92;1684380;84;21076;-57
2022/03/23 09:44:55;;;;;;;11.70;8.53;;;;;;;16.52;23.96;99491.07;1748983;80;21014;-57
2022/03/23 09:47:22;;;;;;;13.20;7.67;;;;;;;16.41;23.75;99488.11;1738277;80;21079;-57
2022/03/23 09:49:50;;;;;;;13.30;7.80;;;;;;;16.31;23.32;99484.33;1762682;80;21037;-57
2022/03/23 09:52:17;;;;;;;13.70;9.60;;;;;;;16.27;23.77;99487.92;1751949;80;21238;-56
2022/03/23 09:54:48;;;;;;;10.72;6.72;;;;;;;16.23;22.88;99483.55;1719931;82;21056;-57
2022/03/23 09:57:15;;;;;;;11.25;6.87;;;;;;;16.21;21.92;99483.02;1751660;80;21129;-57
2022/03/23 09:59:42;;;;;;;12.03;7.45;;;;;;;16.27;21.76;99482.45;1740871;80;21044;-57
2022/03/23 10:02:42;;;;;;;14.65;8.80;;;;;;;16.27;22.53;99480.53;1752025;80;21104;-57
2022/03/23 10:05:29;;;;;;;14.60;9.70;;;;;;;16.25;22.63;99477.83;1751704;80;21023;-57
2022/03/23 10:08:52;;;;;;;32.85;10.48;;;;;;;16.27;22.51;99475.06;1763199;80;21056;-57
2022/03/23 10:11:50;;;;;;;16.27;9.80;;;;;;;16.37;23.47;99475.56;1748022;80;21068;-57
2022/03/23 10:14:32;;;;;;;16.73;11.53;;;;;;;16.41;22.79;99469.80;1742157;81;21013;-57
2022/03/23 10:17:49;;;;;;;11.15;8.08;;;;;;;16.41;23.09;99466.22;1755265;80;21056;-56
2022/03/23 10:20:16;;;;;;;14.90;9.10;;;;;;;16.37;23.18;99459.14;1747920;80;21083;-57
2022/03/23 10:22:47;;;;;;;14.58;9.28;;;;;;;16.34;22.94;99457.80;1740556;80;21513;-57
2022/03/23 10:25:14;;;;;;;16.52;9.85;;;;;;;16.40;22.37;99450.91;1741480;80;21033;-57
2022/03/23 10:27:41;;;;;;;12.63;8.13;;;;;;;16.52;22.60;99452.77;1744199;80;21528;-56
2022/03/23 10:30:09;;;;;;;11.65;8.08;;;;;;;16.60;22.90;99448.88;1741581;80;21025;-57
2022/03/23 10:32:37;;;;;;;13.55;8.80;;;;;;;16.62;21.27;99447.22;1758560;80;21048;-58
2022/03/23 10:35:06;;;;;;;11.70;7.60;;;;;;;16.68;21.40;99445.27;1741778;81;21124;-56
2022/03/23 10:37:33;;;;;;;9.78;5.50;;;;;;;16.75;21.64;99438.93;1741061;80;21038;-56
2022/03/23 10:40:09;;;;;;;56.40;13.38;;;;;;;16.79;19.22;99441.38;1741472;81;21049;-61
2022/03/23 10:42:41;;;;;;;18.05;7.92;;;;;;;16.96;20.24;99433.56;1744070;81;21563;-57
2022/03/23 10:45:20;;;;;;;13.18;6.60;;;;;;;17.08;17.45;99431.81;1765101;81;21037;-57
2022/03/23 10:47:48;;;;;;;9.53;5.42;;;;;;;17.10;17.98;99424.95;1756451;80;21040;-57
2022/03/23 10:50:21;;;;;;;16.35;9.75;;;;;;;17.07;17.39;99413.19;1764479;80;20977;-57
2022/03/23 10:53:02;;;;;;;12.35;5.80;;;;;;;17.07;17.55;99412.38;1746511;80;21049;-57
2022/03/23 10:55:34;;;;;;;16.65;5.80;;;;;;;17.10;18.04;99407.71;1744597;80;21085;-57
2022/03/23 10:58:07;;;;;;;6.92;4.25;;;;;;;17.11;17.59;99401.94;1746183;80;21119;-57
2022/03/23 11:00:39;;;;;;;11.97;5.22;;;;;;;17.10;16.10;99404.42;1743648;80;21045;-58
2022/03/23 11:03:08;;;;;;;10.95;4.70;;;;;;;17.12;16.23;99395.91;1754181;80;21166;-57
2022/03/23 11:05:48;;;;;;;40.35;6.83;;;;;;;17.17;18.51;99393.91;1742186;80;21506;-57
2022/03/23 11:08:22;;;;;;;9.48;5.00;;;;;;;17.23;18.40;99395.25;1688721;84;21049;-57
2022/03/23 11:16:37;;;;;;;9.98;5.37;;;;;;;17.31;17.36;99388.58;1694442;83;21033;-57
2022/03/23 11:19:20;;;;;;;13.75;5.20;;;;;;;17.35;17.46;99381.98;1677179;84;21103;-57
2022/03/23 11:22:09;;;;;;;15.45;5.75;;;;;;;17.40;17.72;99385.46;1680327;84;22626;-56
2022/03/23 11:24:40;;;;;;;;;;;;;;;17.38;17.41;99377.28;1681549;84;21140;-57
2022/03/23 11:27:10;;;;;;;16.00;7.37;;;;;;;17.34;18.60;99372.10;1695391;83;20198;-57
2022/03/23 11:29:39;;;;;;;43.23;8.68;;;;;;;17.37;19.41;99362.77;1691626;84;20970;-57
2022/03/23 11:32:18;;;;;;;21.07;6.90;;;;;;;17.41;19.65;99360.25;1691384;84;21055;-57
2022/03/23 11:34:48;;;;;;;10.50;6.17;;;;;;;17.48;19.06;99354.67;1684159;83;21043;-57
2022/03/23 11:37:16;;;;;;;38.90;9.65;;;;;;;17.54;19.66;99349.15;1683284;84;20988;-57
2022/03/23 11:39:43;;;;;;;11.70;7.25;;;;;;;17.57;19.14;99349.36;1678914;84;21096;-57